sensor_id;sensor_type;location;lat;lon;timestamp;P1;durP1;ratioP1;P2;durP2;ratioP2
28958;SDS011;16066;0.000;0.000;2023-05-07T00:01:18;5.13;;;2.60;;
28958;SDS011;16066;0.000;0.000;2023-05-07T00:03:43;5.30;;;2.33;;
28958;SDS011;16066;0.000;0.000;2023-05-07T00:06:09;3.17;;;2.37;;
28958;SDS011;16066;0.000;0.000;2023-05-07T00:08:37;3.20;;;2.50;;
28958;SDS011;16066;0.000;0.000;2023-05-07T00:11:03;3.60;;;3.30;;
28958;SDS011;16066;0.000;0.000;2023-05-07T00:13:29;3.50;;;2.30;;
28958;SDS011;16066;0.000;0.000;2023-05-07T00:16:00;3.83;;;2.97;;
28958;SDS011;16066;0.000;0.000;2023-05-07T00:18:29;3.83;;;2.80;;
28958;SDS011;16066;0.000;0.000;2023-05-07T00:20:54;3.83;;;2.10;;
28958;SDS011;16066;0.000;0.000;2023-05-07T00:23:21;4.13;;;2.73;;
28958;SDS011;16066;0.000;0.000;2023-05-07T00:25:46;9.40;;;3.13;;
28958;SDS011;16066;0.000;0.000;2023-05-07T00:28:18;3.17;;;2.40;;
28958;SDS011;16066;0.000;0.000;2023-05-07T00:30:44;4.60;;;2.60;;
28958;SDS011;16066;0.000;0.000;2023-05-07T00:33:10;5.00;;;2.70;;
28958;SDS011;16066;0.000;0.000;2023-05-07T00:35:35;2.70;;;2.30;;
28958;SDS011;16066;0.000;0.000;2023-05-07T00:38:01;2.63;;;2.20;;
28958;SDS011;16066;0.000;0.000;2023-05-07T00:40:26;4.20;;;2.23;;
28958;SDS011;16066;0.000;0.000;2023-05-07T00:42:52;4.30;;;2.87;;
28958;SDS011;16066;0.000;0.000;2023-05-07T00:45:21;4.00;;;2.70;;
28958;SDS011;16066;0.000;0.000;2023-05-07T00:47:48;3.90;;;2.83;;
28958;SDS011;16066;0.000;0.000;2023-05-07T00:50:13;2.67;;;2.47;;
28958;SDS011;16066;0.000;0.000;2023-05-07T00:52:39;3.57;;;2.50;;
28958;SDS011;16066;0.000;0.000;2023-05-07T00:55:06;2.97;;;2.23;;
28958;SDS011;16066;0.000;0.000;2023-05-07T00:57:33;5.67;;;2.80;;
28958;SDS011;16066;0.000;0.000;2023-05-07T01:00:02;3.47;;;2.27;;
28958;SDS011;16066;0.000;0.000;2023-05-07T01:02:29;5.30;;;3.00;;
28958;SDS011;16066;0.000;0.000;2023-05-07T01:04:54;3.90;;;2.70;;
28958;SDS011;16066;0.000;0.000;2023-05-07T01:07:21;2.97;;;2.60;;
28958;SDS011;16066;0.000;0.000;2023-05-07T01:09:47;5.90;;;2.70;;
28958;SDS011;16066;0.000;0.000;2023-05-07T01:12:13;3.57;;;2.63;;
28958;SDS011;16066;0.000;0.000;2023-05-07T01:14:40;4.73;;;2.80;;
28958;SDS011;16066;0.000;0.000;2023-05-07T01:17:06;5.33;;;2.40;;
28958;SDS011;16066;0.000;0.000;2023-05-07T01:19:33;2.80;;;2.50;;
28958;SDS011;16066;0.000;0.000;2023-05-07T01:22:08;3.33;;;2.27;;
28958;SDS011;16066;0.000;0.000;2023-05-07T01:24:39;2.20;;;2.00;;
28958;SDS011;16066;0.000;0.000;2023-05-07T01:27:05;3.53;;;2.80;;
28958;SDS011;16066;0.000;0.000;2023-05-07T01:29:31;3.60;;;2.23;;
28958;SDS011;16066;0.000;0.000;2023-05-07T01:31:57;4.40;;;2.50;;
28958;SDS011;16066;0.000;0.000;2023-05-07T01:34:25;2.67;;;2.10;;
28958;SDS011;16066;0.000;0.000;2023-05-07T01:36:53;4.03;;;2.67;;
28958;SDS011;16066;0.000;0.000;2023-05-07T01:39:20;3.30;;;2.43;;
28958;SDS011;16066;0.000;0.000;2023-05-07T01:41:48;2.50;;;2.23;;
28958;SDS011;16066;0.000;0.000;2023-05-07T01:44:14;4.00;;;2.57;;
28958;SDS011;16066;0.000;0.000;2023-05-07T01:46:41;2.60;;;2.40;;
28958;SDS011;16066;0.000;0.000;2023-05-07T01:49:07;3.20;;;2.33;;
28958;SDS011;16066;0.000;0.000;2023-05-07T01:51:33;2.70;;;2.10;;
28958;SDS011;16066;0.000;0.000;2023-05-07T01:53:59;3.33;;;2.37;;
28958;SDS011;16066;0.000;0.000;2023-05-07T01:56:25;5.40;;;2.37;;
28958;SDS011;16066;0.000;0.000;2023-05-07T01:58:50;4.67;;;3.03;;
28958;SDS011;16066;0.000;0.000;2023-05-07T02:01:16;3.53;;;2.40;;
28958;SDS011;16066;0.000;0.000;2023-05-07T02:03:42;2.70;;;2.20;;
28958;SDS011;16066;0.000;0.000;2023-05-07T02:06:08;2.87;;;2.57;;
28958;SDS011;16066;0.000;0.000;2023-05-07T02:08:33;3.30;;;2.27;;
28958;SDS011;16066;0.000;0.000;2023-05-07T02:10:59;3.80;;;2.40;;
28958;SDS011;16066;0.000;0.000;2023-05-07T02:13:26;5.03;;;2.80;;
28958;SDS011;16066;0.000;0.000;2023-05-07T02:15:54;6.70;;;2.50;;
28958;SDS011;16066;0.000;0.000;2023-05-07T02:18:19;4.97;;;3.30;;
28958;SDS011;16066;0.000;0.000;2023-05-07T02:20:45;2.60;;;2.23;;
28958;SDS011;16066;0.000;0.000;2023-05-07T02:23:10;5.13;;;2.80;;
28958;SDS011;16066;0.000;0.000;2023-05-07T02:25:36;3.60;;;2.53;;
28958;SDS011;16066;0.000;0.000;2023-05-07T02:28:01;3.50;;;2.60;;
28958;SDS011;16066;0.000;0.000;2023-05-07T02:30:28;3.50;;;2.23;;
28958;SDS011;16066;0.000;0.000;2023-05-07T02:32:53;3.50;;;2.73;;
28958;SDS011;16066;0.000;0.000;2023-05-07T02:35:19;2.23;;;2.03;;
28958;SDS011;16066;0.000;0.000;2023-05-07T02:37:44;3.87;;;2.60;;
28958;SDS011;16066;0.000;0.000;2023-05-07T02:40:10;4.20;;;2.20;;
28958;SDS011;16066;0.000;0.000;2023-05-07T02:42:36;3.90;;;2.33;;
28958;SDS011;16066;0.000;0.000;2023-05-07T02:45:02;4.33;;;2.13;;
28958;SDS011;16066;0.000;0.000;2023-05-07T02:47:27;4.00;;;2.90;;
28958;SDS011;16066;0.000;0.000;2023-05-07T02:49:53;3.80;;;2.40;;
28958;SDS011;16066;0.000;0.000;2023-05-07T02:52:20;2.77;;;2.20;;
28958;SDS011;16066;0.000;0.000;2023-05-07T02:54:46;3.70;;;2.10;;
28958;SDS011;16066;0.000;0.000;2023-05-07T02:57:11;4.27;;;2.43;;
28958;SDS011;16066;0.000;0.000;2023-05-07T02:59:37;3.10;;;2.43;;
28958;SDS011;16066;0.000;0.000;2023-05-07T03:02:02;4.03;;;2.80;;
28958;SDS011;16066;0.000;0.000;2023-05-07T03:04:28;4.90;;;2.47;;
28958;SDS011;16066;0.000;0.000;2023-05-07T03:06:53;3.90;;;2.77;;
28958;SDS011;16066;0.000;0.000;2023-05-07T03:09:19;3.33;;;2.57;;
28958;SDS011;16066;0.000;0.000;2023-05-07T03:11:45;2.50;;;2.20;;
28958;SDS011;16066;0.000;0.000;2023-05-07T03:14:11;3.63;;;2.40;;
28958;SDS011;16066;0.000;0.000;2023-05-07T03:16:37;2.60;;;2.20;;
28958;SDS011;16066;0.000;0.000;2023-05-07T03:19:03;3.57;;;2.30;;
28958;SDS011;16066;0.000;0.000;2023-05-07T03:21:28;2.73;;;2.30;;
28958;SDS011;16066;0.000;0.000;2023-05-07T03:23:55;4.40;;;2.93;;
28958;SDS011;16066;0.000;0.000;2023-05-07T03:26:21;4.53;;;2.17;;
28958;SDS011;16066;0.000;0.000;2023-05-07T03:28:46;2.40;;;1.90;;
28958;SDS011;16066;0.000;0.000;2023-05-07T03:31:12;3.87;;;2.07;;
28958;SDS011;16066;0.000;0.000;2023-05-07T03:33:39;3.40;;;2.40;;
28958;SDS011;16066;0.000;0.000;2023-05-07T03:36:21;2.70;;;2.27;;
28958;SDS011;16066;0.000;0.000;2023-05-07T03:38:47;4.33;;;2.17;;
28958;SDS011;16066;0.000;0.000;2023-05-07T03:41:14;2.60;;;2.27;;
28958;SDS011;16066;0.000;0.000;2023-05-07T03:43:39;2.30;;;2.00;;
28958;SDS011;16066;0.000;0.000;2023-05-07T03:46:05;4.30;;;2.40;;
28958;SDS011;16066;0.000;0.000;2023-05-07T03:48:30;2.27;;;2.07;;
28958;SDS011;16066;0.000;0.000;2023-05-07T03:50:57;3.17;;;2.37;;
28958;SDS011;16066;0.000;0.000;2023-05-07T03:53:22;3.00;;;2.30;;
28958;SDS011;16066;0.000;0.000;2023-05-07T03:55:48;2.13;;;1.93;;
28958;SDS011;16066;0.000;0.000;2023-05-07T03:58:14;2.40;;;2.10;;
28958;SDS011;16066;0.000;0.000;2023-05-07T04:00:40;2.53;;;2.30;;
28958;SDS011;16066;0.000;0.000;2023-05-07T04:03:06;2.90;;;2.10;;
28958;SDS011;16066;0.000;0.000;2023-05-07T04:05:31;2.40;;;1.83;;
28958;SDS011;16066;0.000;0.000;2023-05-07T04:08:00;3.00;;;2.10;;
28958;SDS011;16066;0.000;0.000;2023-05-07T04:10:27;2.70;;;2.20;;
28958;SDS011;16066;0.000;0.000;2023-05-07T04:12:53;2.93;;;2.00;;
28958;SDS011;16066;0.000;0.000;2023-05-07T04:15:19;2.27;;;1.63;;
28958;SDS011;16066;0.000;0.000;2023-05-07T04:17:44;2.00;;;1.63;;
28958;SDS011;16066;0.000;0.000;2023-05-07T04:20:13;2.43;;;1.87;;
28958;SDS011;16066;0.000;0.000;2023-05-07T04:22:39;4.37;;;2.57;;
28958;SDS011;16066;0.000;0.000;2023-05-07T04:25:05;4.00;;;1.90;;
28958;SDS011;16066;0.000;0.000;2023-05-07T04:27:32;1.77;;;1.67;;
28958;SDS011;16066;0.000;0.000;2023-05-07T04:29:58;2.30;;;2.10;;
28958;SDS011;16066;0.000;0.000;2023-05-07T04:32:25;2.20;;;2.00;;
28958;SDS011;16066;0.000;0.000;2023-05-07T04:34:51;4.20;;;1.83;;
28958;SDS011;16066;0.000;0.000;2023-05-07T04:37:17;3.27;;;1.77;;
28958;SDS011;16066;0.000;0.000;2023-05-07T04:39:42;4.67;;;2.00;;
28958;SDS011;16066;0.000;0.000;2023-05-07T04:42:08;3.03;;;1.90;;
28958;SDS011;16066;0.000;0.000;2023-05-07T04:44:34;3.87;;;2.13;;
28958;SDS011;16066;0.000;0.000;2023-05-07T04:47:02;7.07;;;2.50;;
28958;SDS011;16066;0.000;0.000;2023-05-07T04:49:27;3.57;;;2.30;;
28958;SDS011;16066;0.000;0.000;2023-05-07T04:51:53;3.70;;;2.23;;
28958;SDS011;16066;0.000;0.000;2023-05-07T04:54:18;3.00;;;1.87;;
28958;SDS011;16066;0.000;0.000;2023-05-07T04:56:43;4.50;;;2.00;;
28958;SDS011;16066;0.000;0.000;2023-05-07T04:59:09;2.00;;;1.73;;
28958;SDS011;16066;0.000;0.000;2023-05-07T05:01:35;4.97;;;1.93;;
28958;SDS011;16066;0.000;0.000;2023-05-07T05:04:00;2.30;;;1.70;;
28958;SDS011;16066;0.000;0.000;2023-05-07T05:06:26;1.70;;;1.60;;
28958;SDS011;16066;0.000;0.000;2023-05-07T05:08:51;2.43;;;1.70;;
28958;SDS011;16066;0.000;0.000;2023-05-07T05:11:17;2.23;;;1.97;;
28958;SDS011;16066;0.000;0.000;2023-05-07T05:13:42;3.83;;;2.17;;
28958;SDS011;16066;0.000;0.000;2023-05-07T05:16:08;4.30;;;1.77;;
28958;SDS011;16066;0.000;0.000;2023-05-07T05:18:34;2.23;;;1.80;;
28958;SDS011;16066;0.000;0.000;2023-05-07T05:20:59;2.27;;;1.77;;
28958;SDS011;16066;0.000;0.000;2023-05-07T05:23:25;3.80;;;1.80;;
28958;SDS011;16066;0.000;0.000;2023-05-07T05:25:54;3.40;;;1.50;;
28958;SDS011;16066;0.000;0.000;2023-05-07T05:28:21;3.60;;;2.00;;
28958;SDS011;16066;0.000;0.000;2023-05-07T05:30:46;3.30;;;2.10;;
28958;SDS011;16066;0.000;0.000;2023-05-07T05:33:12;4.60;;;1.83;;
28958;SDS011;16066;0.000;0.000;2023-05-07T05:35:37;2.30;;;1.90;;
28958;SDS011;16066;0.000;0.000;2023-05-07T05:38:03;2.63;;;1.87;;
28958;SDS011;16066;0.000;0.000;2023-05-07T05:40:29;1.90;;;1.70;;
28958;SDS011;16066;0.000;0.000;2023-05-07T05:42:54;4.57;;;2.43;;
28958;SDS011;16066;0.000;0.000;2023-05-07T05:45:20;2.50;;;1.70;;
28958;SDS011;16066;0.000;0.000;2023-05-07T05:47:45;2.60;;;2.10;;
28958;SDS011;16066;0.000;0.000;2023-05-07T05:50:11;2.77;;;2.40;;
28958;SDS011;16066;0.000;0.000;2023-05-07T05:52:36;2.80;;;1.70;;
28958;SDS011;16066;0.000;0.000;2023-05-07T05:55:02;2.13;;;1.67;;
28958;SDS011;16066;0.000;0.000;2023-05-07T05:57:27;5.30;;;2.33;;
28958;SDS011;16066;0.000;0.000;2023-05-07T05:59:53;4.37;;;2.67;;
28958;SDS011;16066;0.000;0.000;2023-05-07T06:02:19;2.60;;;2.10;;
28958;SDS011;16066;0.000;0.000;2023-05-07T06:04:45;3.03;;;1.80;;
28958;SDS011;16066;0.000;0.000;2023-05-07T06:07:11;4.10;;;1.80;;
28958;SDS011;16066;0.000;0.000;2023-05-07T06:09:36;2.40;;;2.20;;
28958;SDS011;16066;0.000;0.000;2023-05-07T06:12:02;3.00;;;2.70;;
28958;SDS011;16066;0.000;0.000;2023-05-07T06:14:27;2.30;;;2.07;;
28958;SDS011;16066;0.000;0.000;2023-05-07T06:16:53;3.20;;;2.27;;
28958;SDS011;16066;0.000;0.000;2023-05-07T06:19:18;5.03;;;2.43;;
28958;SDS011;16066;0.000;0.000;2023-05-07T06:21:48;2.63;;;2.33;;
28958;SDS011;16066;0.000;0.000;2023-05-07T06:24:13;3.73;;;2.17;;
28958;SDS011;16066;0.000;0.000;2023-05-07T06:26:39;4.03;;;2.40;;
28958;SDS011;16066;0.000;0.000;2023-05-07T06:29:05;3.83;;;2.67;;
28958;SDS011;16066;0.000;0.000;2023-05-07T06:31:31;4.60;;;2.20;;
28958;SDS011;16066;0.000;0.000;2023-05-07T06:33:57;2.13;;;1.93;;
28958;SDS011;16066;0.000;0.000;2023-05-07T06:36:23;2.47;;;2.13;;
28958;SDS011;16066;0.000;0.000;2023-05-07T06:38:49;2.87;;;2.10;;
28958;SDS011;16066;0.000;0.000;2023-05-07T06:41:14;2.73;;;2.30;;
28958;SDS011;16066;0.000;0.000;2023-05-07T06:43:40;4.63;;;2.30;;
28958;SDS011;16066;0.000;0.000;2023-05-07T06:46:06;7.30;;;2.30;;
28958;SDS011;16066;0.000;0.000;2023-05-07T06:48:31;1.97;;;1.73;;
28958;SDS011;16066;0.000;0.000;2023-05-07T06:50:57;2.37;;;1.87;;
28958;SDS011;16066;0.000;0.000;2023-05-07T06:53:23;2.93;;;2.20;;
28958;SDS011;16066;0.000;0.000;2023-05-07T06:55:48;2.87;;;2.00;;
28958;SDS011;16066;0.000;0.000;2023-05-07T06:58:14;3.10;;;2.20;;
28958;SDS011;16066;0.000;0.000;2023-05-07T07:00:40;2.03;;;1.83;;
28958;SDS011;16066;0.000;0.000;2023-05-07T07:03:05;4.50;;;2.50;;
28958;SDS011;16066;0.000;0.000;2023-05-07T07:05:31;3.70;;;2.10;;
28958;SDS011;16066;0.000;0.000;2023-05-07T07:07:57;3.93;;;2.20;;
28958;SDS011;16066;0.000;0.000;2023-05-07T07:10:22;4.40;;;2.30;;
28958;SDS011;16066;0.000;0.000;2023-05-07T07:12:48;4.73;;;3.40;;
28958;SDS011;16066;0.000;0.000;2023-05-07T07:15:14;4.13;;;2.80;;
28958;SDS011;16066;0.000;0.000;2023-05-07T07:17:40;4.40;;;2.30;;
28958;SDS011;16066;0.000;0.000;2023-05-07T07:20:06;2.77;;;2.27;;
28958;SDS011;16066;0.000;0.000;2023-05-07T07:22:32;6.70;;;2.10;;
28958;SDS011;16066;0.000;0.000;2023-05-07T07:24:58;2.07;;;1.83;;
28958;SDS011;16066;0.000;0.000;2023-05-07T07:27:23;5.95;;;2.50;;
28958;SDS011;16066;0.000;0.000;2023-05-07T07:29:49;4.97;;;2.33;;
28958;SDS011;16066;0.000;0.000;2023-05-07T07:32:15;2.20;;;2.00;;
28958;SDS011;16066;0.000;0.000;2023-05-07T07:34:40;4.43;;;1.80;;
28958;SDS011;16066;0.000;0.000;2023-05-07T07:37:06;1.67;;;1.57;;
28958;SDS011;16066;0.000;0.000;2023-05-07T07:39:32;3.10;;;1.87;;
28958;SDS011;16066;0.000;0.000;2023-05-07T07:41:58;2.67;;;1.93;;
28958;SDS011;16066;0.000;0.000;2023-05-07T07:44:23;3.93;;;2.10;;
28958;SDS011;16066;0.000;0.000;2023-05-07T07:46:49;3.40;;;1.97;;
28958;SDS011;16066;0.000;0.000;2023-05-07T07:49:15;6.10;;;2.10;;
28958;SDS011;16066;0.000;0.000;2023-05-07T07:51:41;4.00;;;2.10;;
28958;SDS011;16066;0.000;0.000;2023-05-07T07:54:06;3.30;;;2.00;;
28958;SDS011;16066;0.000;0.000;2023-05-07T07:56:32;3.17;;;2.40;;
28958;SDS011;16066;0.000;0.000;2023-05-07T07:59:01;2.27;;;1.57;;
28958;SDS011;16066;0.000;0.000;2023-05-07T08:01:27;1.57;;;1.47;;
28958;SDS011;16066;0.000;0.000;2023-05-07T08:03:54;2.50;;;2.00;;
28958;SDS011;16066;0.000;0.000;2023-05-07T08:06:20;4.43;;;1.80;;
28958;SDS011;16066;0.000;0.000;2023-05-07T08:08:46;7.40;;;2.30;;
28958;SDS011;16066;0.000;0.000;2023-05-07T08:11:11;1.70;;;1.47;;
28958;SDS011;16066;0.000;0.000;2023-05-07T08:13:37;2.97;;;1.27;;
28958;SDS011;16066;0.000;0.000;2023-05-07T08:16:03;1.70;;;1.40;;
28958;SDS011;16066;0.000;0.000;2023-05-07T08:18:29;1.73;;;1.53;;
28958;SDS011;16066;0.000;0.000;2023-05-07T08:20:55;2.33;;;2.07;;
28958;SDS011;16066;0.000;0.000;2023-05-07T08:23:21;3.77;;;1.90;;
28958;SDS011;16066;0.000;0.000;2023-05-07T08:25:47;3.43;;;1.60;;
28958;SDS011;16066;0.000;0.000;2023-05-07T08:28:13;4.67;;;1.80;;
28958;SDS011;16066;0.000;0.000;2023-05-07T08:30:38;2.17;;;1.60;;
28958;SDS011;16066;0.000;0.000;2023-05-07T08:33:04;2.90;;;1.50;;
28958;SDS011;16066;0.000;0.000;2023-05-07T08:35:29;2.77;;;2.10;;
28958;SDS011;16066;0.000;0.000;2023-05-07T08:37:55;4.07;;;1.50;;
28958;SDS011;16066;0.000;0.000;2023-05-07T08:40:22;3.17;;;1.60;;
28958;SDS011;16066;0.000;0.000;2023-05-07T08:42:51;3.03;;;1.57;;
28958;SDS011;16066;0.000;0.000;2023-05-07T08:45:17;4.20;;;1.67;;
28958;SDS011;16066;0.000;0.000;2023-05-07T08:47:50;6.10;;;1.50;;
28958;SDS011;16066;0.000;0.000;2023-05-07T08:50:18;3.17;;;1.80;;
28958;SDS011;16066;0.000;0.000;2023-05-07T08:52:45;1.90;;;1.47;;
28958;SDS011;16066;0.000;0.000;2023-05-07T08:55:11;2.93;;;1.63;;
28958;SDS011;16066;0.000;0.000;2023-05-07T08:57:38;6.10;;;1.47;;
28958;SDS011;16066;0.000;0.000;2023-05-07T09:00:04;1.50;;;1.40;;
28958;SDS011;16066;0.000;0.000;2023-05-07T09:02:32;2.00;;;1.40;;
28958;SDS011;16066;0.000;0.000;2023-05-07T09:04:58;6.10;;;1.47;;
28958;SDS011;16066;0.000;0.000;2023-05-07T09:07:23;2.07;;;1.57;;
28958;SDS011;16066;0.000;0.000;2023-05-07T09:09:50;1.77;;;1.40;;
28958;SDS011;16066;0.000;0.000;2023-05-07T09:12:17;1.60;;;1.50;;
28958;SDS011;16066;0.000;0.000;2023-05-07T09:14:43;2.03;;;1.77;;
28958;SDS011;16066;0.000;0.000;2023-05-07T09:17:10;3.50;;;1.77;;
28958;SDS011;16066;0.000;0.000;2023-05-07T09:19:36;3.87;;;1.90;;
28958;SDS011;16066;0.000;0.000;2023-05-07T09:22:02;3.20;;;1.70;;
28958;SDS011;16066;0.000;0.000;2023-05-07T09:24:29;2.27;;;1.60;;
28958;SDS011;16066;0.000;0.000;2023-05-07T09:26:59;1.97;;;1.50;;
28958;SDS011;16066;0.000;0.000;2023-05-07T09:29:26;1.63;;;1.53;;
28958;SDS011;16066;0.000;0.000;2023-05-07T09:31:53;1.63;;;1.53;;
28958;SDS011;16066;0.000;0.000;2023-05-07T09:34:19;3.23;;;1.50;;
28958;SDS011;16066;0.000;0.000;2023-05-07T09:36:45;1.77;;;1.40;;
28958;SDS011;16066;0.000;0.000;2023-05-07T09:39:10;2.87;;;1.40;;
28958;SDS011;16066;0.000;0.000;2023-05-07T09:41:48;1.67;;;1.40;;
28958;SDS011;16066;0.000;0.000;2023-05-07T09:44:19;2.63;;;1.50;;
28958;SDS011;16066;0.000;0.000;2023-05-07T09:46:45;3.80;;;1.83;;
28958;SDS011;16066;0.000;0.000;2023-05-07T09:49:19;2.20;;;1.70;;
28958;SDS011;16066;0.000;0.000;2023-05-07T09:51:50;1.53;;;1.30;;
28958;SDS011;16066;0.000;0.000;2023-05-07T09:54:18;2.90;;;1.80;;
28958;SDS011;16066;0.000;0.000;2023-05-07T09:56:50;1.90;;;1.40;;
28958;SDS011;16066;0.000;0.000;2023-05-07T09:59:17;1.53;;;1.30;;
28958;SDS011;16066;0.000;0.000;2023-05-07T10:01:44;3.80;;;1.60;;
28958;SDS011;16066;0.000;0.000;2023-05-07T10:04:10;3.00;;;1.30;;
28958;SDS011;16066;0.000;0.000;2023-05-07T10:06:36;1.63;;;1.33;;
28958;SDS011;16066;0.000;0.000;2023-05-07T10:09:03;1.40;;;1.20;;
28958;SDS011;16066;0.000;0.000;2023-05-07T10:11:32;3.20;;;1.50;;
28958;SDS011;16066;0.000;0.000;2023-05-07T10:13:59;1.37;;;1.20;;
28958;SDS011;16066;0.000;0.000;2023-05-07T10:16:27;1.90;;;1.30;;
28958;SDS011;16066;0.000;0.000;2023-05-07T10:19:02;2.00;;;1.30;;
28958;SDS011;16066;0.000;0.000;2023-05-07T10:21:29;1.60;;;1.50;;
28958;SDS011;16066;0.000;0.000;2023-05-07T10:23:59;1.57;;;1.37;;
28958;SDS011;16066;0.000;0.000;2023-05-07T10:26:30;4.00;;;1.20;;
28958;SDS011;16066;0.000;0.000;2023-05-07T10:29:10;2.73;;;1.67;;
28958;SDS011;16066;0.000;0.000;2023-05-07T10:34:13;1.63;;;1.40;;
28958;SDS011;16066;0.000;0.000;2023-05-07T10:36:43;2.40;;;1.27;;
28958;SDS011;16066;0.000;0.000;2023-05-07T10:39:09;3.53;;;1.60;;
28958;SDS011;16066;0.000;0.000;2023-05-07T10:41:35;1.70;;;1.40;;
28958;SDS011;16066;0.000;0.000;2023-05-07T10:44:01;4.53;;;1.50;;
28958;SDS011;16066;0.000;0.000;2023-05-07T10:46:27;3.30;;;1.60;;
28958;SDS011;16066;0.000;0.000;2023-05-07T10:51:33;1.43;;;1.20;;
28958;SDS011;16066;0.000;0.000;2023-05-07T10:56:34;2.77;;;1.57;;
28958;SDS011;16066;0.000;0.000;2023-05-07T11:01:52;1.33;;;1.23;;
28958;SDS011;16066;0.000;0.000;2023-05-07T11:04:19;3.90;;;1.23;;
28958;SDS011;16066;0.000;0.000;2023-05-07T11:15:05;1.83;;;1.20;;
28958;SDS011;16066;0.000;0.000;2023-05-07T11:17:34;3.10;;;1.57;;
28958;SDS011;16066;0.000;0.000;2023-05-07T11:20:17;2.83;;;1.30;;
28958;SDS011;16066;0.000;0.000;2023-05-07T11:22:43;3.30;;;1.50;;
28958;SDS011;16066;0.000;0.000;2023-05-07T11:25:09;1.97;;;1.33;;
28958;SDS011;16066;0.000;0.000;2023-05-07T11:27:36;12.10;;;1.90;;
28958;SDS011;16066;0.000;0.000;2023-05-07T11:30:01;2.97;;;1.73;;
28958;SDS011;16066;0.000;0.000;2023-05-07T11:32:28;6.33;;;2.00;;
28958;SDS011;16066;0.000;0.000;2023-05-07T11:34:55;2.87;;;1.80;;
28958;SDS011;16066;0.000;0.000;2023-05-07T11:37:22;2.70;;;2.10;;
28958;SDS011;16066;0.000;0.000;2023-05-07T11:39:49;2.30;;;1.70;;
28958;SDS011;16066;0.000;0.000;2023-05-07T11:42:28;2.40;;;1.50;;
28958;SDS011;16066;0.000;0.000;2023-05-07T11:44:55;2.00;;;1.40;;
28958;SDS011;16066;0.000;0.000;2023-05-07T11:47:20;3.13;;;1.70;;
28958;SDS011;16066;0.000;0.000;2023-05-07T11:49:47;2.13;;;1.57;;
28958;SDS011;16066;0.000;0.000;2023-05-07T11:52:14;2.53;;;1.60;;
28958;SDS011;16066;0.000;0.000;2023-05-07T11:54:40;4.70;;;1.60;;
28958;SDS011;16066;0.000;0.000;2023-05-07T11:57:05;1.40;;;1.30;;
28958;SDS011;16066;0.000;0.000;2023-05-07T11:59:38;6.70;;;1.80;;
28958;SDS011;16066;0.000;0.000;2023-05-07T12:02:05;1.93;;;1.60;;
28958;SDS011;16066;0.000;0.000;2023-05-07T12:04:31;3.57;;;1.63;;
28958;SDS011;16066;0.000;0.000;2023-05-07T12:06:57;1.77;;;1.50;;
28958;SDS011;16066;0.000;0.000;2023-05-07T12:09:22;1.70;;;1.60;;
28958;SDS011;16066;0.000;0.000;2023-05-07T12:11:48;2.33;;;1.60;;
28958;SDS011;16066;0.000;0.000;2023-05-07T12:14:14;4.17;;;1.80;;
28958;SDS011;16066;0.000;0.000;2023-05-07T12:16:43;2.33;;;1.80;;
28958;SDS011;16066;0.000;0.000;2023-05-07T12:19:09;2.43;;;1.50;;
28958;SDS011;16066;0.000;0.000;2023-05-07T12:21:37;2.87;;;1.37;;
28958;SDS011;16066;0.000;0.000;2023-05-07T12:24:04;5.03;;;1.43;;
28958;SDS011;16066;0.000;0.000;2023-05-07T12:26:30;3.50;;;1.70;;
28958;SDS011;16066;0.000;0.000;2023-05-07T12:28:57;2.60;;;1.97;;
28958;SDS011;16066;0.000;0.000;2023-05-07T12:31:23;2.23;;;1.40;;
28958;SDS011;16066;0.000;0.000;2023-05-07T12:33:51;2.47;;;1.60;;
28958;SDS011;16066;0.000;0.000;2023-05-07T12:36:16;3.73;;;1.77;;
28958;SDS011;16066;0.000;0.000;2023-05-07T12:38:42;2.40;;;1.73;;
28958;SDS011;16066;0.000;0.000;2023-05-07T12:41:08;2.20;;;1.93;;
28958;SDS011;16066;0.000;0.000;2023-05-07T12:43:34;2.80;;;2.30;;
28958;SDS011;16066;0.000;0.000;2023-05-07T12:46:01;2.63;;;2.30;;
28958;SDS011;16066;0.000;0.000;2023-05-07T12:48:31;4.47;;;2.57;;
28958;SDS011;16066;0.000;0.000;2023-05-07T12:50:57;4.30;;;2.63;;
28958;SDS011;16066;0.000;0.000;2023-05-07T12:53:25;3.10;;;2.47;;
28958;SDS011;16066;0.000;0.000;2023-05-07T12:55:52;5.43;;;2.60;;
28958;SDS011;16066;0.000;0.000;2023-05-07T12:58:29;3.70;;;2.90;;
28958;SDS011;16066;0.000;0.000;2023-05-07T13:00:58;4.07;;;3.00;;
28958;SDS011;16066;0.000;0.000;2023-05-07T13:03:29;5.40;;;3.20;;
28958;SDS011;16066;0.000;0.000;2023-05-07T13:06:03;4.27;;;2.90;;
28958;SDS011;16066;0.000;0.000;2023-05-07T13:08:31;4.53;;;3.67;;
28958;SDS011;16066;0.000;0.000;2023-05-07T13:11:01;4.30;;;3.50;;
28958;SDS011;16066;0.000;0.000;2023-05-07T13:13:29;3.53;;;3.20;;
28958;SDS011;16066;0.000;0.000;2023-05-07T13:15:55;4.20;;;2.50;;
28958;SDS011;16066;0.000;0.000;2023-05-07T13:18:21;2.73;;;2.53;;
28958;SDS011;16066;0.000;0.000;2023-05-07T13:20:46;3.50;;;2.97;;
28958;SDS011;16066;0.000;0.000;2023-05-07T13:23:12;2.57;;;2.37;;
28958;SDS011;16066;0.000;0.000;2023-05-07T13:25:37;3.63;;;2.50;;
28958;SDS011;16066;0.000;0.000;2023-05-07T13:28:03;2.93;;;2.10;;
28958;SDS011;16066;0.000;0.000;2023-05-07T13:30:29;3.40;;;1.90;;
28958;SDS011;16066;0.000;0.000;2023-05-07T13:32:55;3.50;;;2.07;;
28958;SDS011;16066;0.000;0.000;2023-05-07T13:35:21;6.07;;;2.20;;
28958;SDS011;16066;0.000;0.000;2023-05-07T13:37:46;2.43;;;2.20;;
28958;SDS011;16066;0.000;0.000;2023-05-07T13:40:14;2.47;;;1.90;;
28958;SDS011;16066;0.000;0.000;2023-05-07T13:42:40;2.67;;;2.43;;
28958;SDS011;16066;0.000;0.000;2023-05-07T13:45:06;4.00;;;2.30;;
28958;SDS011;16066;0.000;0.000;2023-05-07T13:47:32;2.57;;;1.73;;
28958;SDS011;16066;0.000;0.000;2023-05-07T13:49:57;3.60;;;2.20;;
28958;SDS011;16066;0.000;0.000;2023-05-07T13:52:23;2.30;;;2.10;;
28958;SDS011;16066;0.000;0.000;2023-05-07T13:54:49;3.40;;;2.30;;
28958;SDS011;16066;0.000;0.000;2023-05-07T13:57:14;4.33;;;2.40;;
28958;SDS011;16066;0.000;0.000;2023-05-07T13:59:40;4.20;;;2.40;;
28958;SDS011;16066;0.000;0.000;2023-05-07T14:02:06;4.70;;;2.83;;
28958;SDS011;16066;0.000;0.000;2023-05-07T14:04:31;4.07;;;2.20;;
28958;SDS011;16066;0.000;0.000;2023-05-07T14:06:57;3.63;;;2.40;;
28958;SDS011;16066;0.000;0.000;2023-05-07T14:09:23;3.83;;;2.53;;
28958;SDS011;16066;0.000;0.000;2023-05-07T14:11:48;2.60;;;2.00;;
28958;SDS011;16066;0.000;0.000;2023-05-07T14:14:16;6.07;;;2.53;;
28958;SDS011;16066;0.000;0.000;2023-05-07T14:16:45;2.83;;;2.10;;
28958;SDS011;16066;0.000;0.000;2023-05-07T14:19:13;3.07;;;2.07;;
28958;SDS011;16066;0.000;0.000;2023-05-07T14:21:39;2.93;;;2.20;;
28958;SDS011;16066;0.000;0.000;2023-05-07T14:24:06;3.70;;;2.57;;
28958;SDS011;16066;0.000;0.000;2023-05-07T14:26:32;3.30;;;2.60;;
28958;SDS011;16066;0.000;0.000;2023-05-07T14:28:58;7.77;;;2.10;;
28958;SDS011;16066;0.000;0.000;2023-05-07T14:31:24;3.43;;;2.30;;
28958;SDS011;16066;0.000;0.000;2023-05-07T14:33:49;4.47;;;2.23;;
28958;SDS011;16066;0.000;0.000;2023-05-07T14:36:16;5.00;;;2.67;;
28958;SDS011;16066;0.000;0.000;2023-05-07T14:38:42;3.73;;;2.50;;
28958;SDS011;16066;0.000;0.000;2023-05-07T14:41:07;6.70;;;2.83;;
28958;SDS011;16066;0.000;0.000;2023-05-07T14:43:33;3.07;;;2.53;;
28958;SDS011;16066;0.000;0.000;2023-05-07T14:45:59;3.03;;;2.30;;
28958;SDS011;16066;0.000;0.000;2023-05-07T14:48:24;3.63;;;2.60;;
28958;SDS011;16066;0.000;0.000;2023-05-07T14:50:50;3.27;;;2.40;;
28958;SDS011;16066;0.000;0.000;2023-05-07T14:53:15;5.07;;;2.83;;
28958;SDS011;16066;0.000;0.000;2023-05-07T14:55:41;3.93;;;2.50;;
28958;SDS011;16066;0.000;0.000;2023-05-07T14:58:06;4.13;;;3.10;;
28958;SDS011;16066;0.000;0.000;2023-05-07T15:00:32;3.93;;;3.50;;
28958;SDS011;16066;0.000;0.000;2023-05-07T15:03:02;4.40;;;3.50;;
28958;SDS011;16066;0.000;0.000;2023-05-07T15:05:35;4.87;;;3.23;;
28958;SDS011;16066;0.000;0.000;2023-05-07T15:08:01;6.77;;;3.97;;
28958;SDS011;16066;0.000;0.000;2023-05-07T15:10:27;6.27;;;4.00;;
28958;SDS011;16066;0.000;0.000;2023-05-07T15:12:53;4.97;;;3.50;;
28958;SDS011;16066;0.000;0.000;2023-05-07T15:15:18;6.63;;;4.37;;